sensor_id;sensor_type;location;lat;lon;timestamp;temperature;humidity
52743;DHT22;55583;53.012;6.556;2023-06-22T00:00:52;17.70;99.90
52743;DHT22;55583;53.012;6.556;2023-06-22T00:03:19;17.60;99.90
52743;DHT22;55583;53.012;6.556;2023-06-22T00:05:46;17.60;99.90
52743;DHT22;55583;53.012;6.556;2023-06-22T00:08:12;17.50;99.90
52743;DHT22;55583;53.012;6.556;2023-06-22T00:10:38;17.50;99.90
52743;DHT22;55583;53.012;6.556;2023-06-22T00:13:05;17.80;99.90
52743;DHT22;55583;53.012;6.556;2023-06-22T00:15:30;17.40;99.90
52743;DHT22;55583;53.012;6.556;2023-06-22T00:17:56;17.40;99.90
52743;DHT22;55583;53.012;6.556;2023-06-22T00:20:23;17.40;99.90
52743;DHT22;55583;53.012;6.556;2023-06-22T00:22:54;17.30;99.90
52743;DHT22;55583;53.012;6.556;2023-06-22T00:25:19;17.30;99.90
52743;DHT22;55583;53.012;6.556;2023-06-22T00:27:45;17.20;99.90
52743;DHT22;55583;53.012;6.556;2023-06-22T00:30:11;17.20;99.90
52743;DHT22;55583;53.012;6.556;2023-06-22T00:32:36;17.20;99.90
52743;DHT22;55583;53.012;6.556;2023-06-22T00:35:02;17.10;99.90
52743;DHT22;55583;53.012;6.556;2023-06-22T00:37:28;17.10;99.90
52743;DHT22;55583;53.012;6.556;2023-06-22T00:39:55;17.10;99.90
52743;DHT22;55583;53.012;6.556;2023-06-22T00:42:21;17.00;99.90
52743;DHT22;55583;53.012;6.556;2023-06-22T00:44:46;17.00;99.90
52743;DHT22;55583;53.012;6.556;2023-06-22T00:47:17;17.00;99.90
52743;DHT22;55583;53.012;6.556;2023-06-22T00:49:43;16.90;99.90
52743;DHT22;55583;53.012;6.556;2023-06-22T00:52:10;16.90;99.90
52743;DHT22;55583;53.012;6.556;2023-06-22T00:54:41;16.80;99.90
52743;DHT22;55583;53.012;6.556;2023-06-22T00:57:11;16.80;99.90
52743;DHT22;55583;53.012;6.556;2023-06-22T00:59:37;16.80;99.90
52743;DHT22;55583;53.012;6.556;2023-06-22T01:02:05;16.70;99.90
52743;DHT22;55583;53.012;6.556;2023-06-22T01:04:37;16.70;99.90
52743;DHT22;55583;53.012;6.556;2023-06-22T01:09:59;16.60;99.90
52743;DHT22;55583;53.012;6.556;2023-06-22T01:12:26;16.60;99.90
52743;DHT22;55583;53.012;6.556;2023-06-22T01:14:59;16.60;99.90
52743;DHT22;55583;53.012;6.556;2023-06-22T01:17:26;16.60;99.90
52743;DHT22;55583;53.012;6.556;2023-06-22T01:19:55;16.50;99.90
52743;DHT22;55583;53.012;6.556;2023-06-22T01:22:26;16.50;99.90
52743;DHT22;55583;53.012;6.556;2023-06-22T01:30:03;16.40;99.90
52743;DHT22;55583;53.012;6.556;2023-06-22T01:32:32;16.40;99.90
52743;DHT22;55583;53.012;6.556;2023-06-22T01:35:04;16.40;99.90
52743;DHT22;55583;53.012;6.556;2023-06-22T01:37:31;16.30;99.90
52743;DHT22;55583;53.012;6.556;2023-06-22T01:39:58;16.30;99.90
52743;DHT22;55583;53.012;6.556;2023-06-22T01:42:24;16.30;99.90
52743;DHT22;55583;53.012;6.556;2023-06-22T01:44:52;16.30;99.90
52743;DHT22;55583;53.012;6.556;2023-06-22T01:47:18;16.20;99.90
52743;DHT22;55583;53.012;6.556;2023-06-22T01:49:46;16.20;99.90
52743;DHT22;55583;53.012;6.556;2023-06-22T01:52:11;16.20;99.90
52743;DHT22;55583;53.012;6.556;2023-06-22T01:54:39;16.20;99.90
52743;DHT22;55583;53.012;6.556;2023-06-22T01:57:05;16.20;99.90
52743;DHT22;55583;53.012;6.556;2023-06-22T01:59:44;16.10;99.90
52743;DHT22;55583;53.012;6.556;2023-06-22T02:02:12;16.10;99.90
52743;DHT22;55583;53.012;6.556;2023-06-22T02:04:47;16.10;99.90
52743;DHT22;55583;53.012;6.556;2023-06-22T02:07:15;16.10;99.90
52743;DHT22;55583;53.012;6.556;2023-06-22T02:09:46;16.00;99.90
52743;DHT22;55583;53.012;6.556;2023-06-22T02:12:14;16.00;99.90
52743;DHT22;55583;53.012;6.556;2023-06-22T02:14:41;16.00;99.90
52743;DHT22;55583;53.012;6.556;2023-06-22T02:17:09;15.90;99.90
52743;DHT22;55583;53.012;6.556;2023-06-22T02:19:36;15.90;99.90
52743;DHT22;55583;53.012;6.556;2023-06-22T02:22:03;15.90;99.90
52743;DHT22;55583;53.012;6.556;2023-06-22T02:24:29;15.90;99.90
52743;DHT22;55583;53.012;6.556;2023-06-22T02:27:01;15.90;99.90
52743;DHT22;55583;53.012;6.556;2023-06-22T02:29:27;15.80;99.90
52743;DHT22;55583;53.012;6.556;2023-06-22T02:31:54;15.90;99.90
52743;DHT22;55583;53.012;6.556;2023-06-22T02:34:20;15.80;99.90
52743;DHT22;55583;53.012;6.556;2023-06-22T02:36:47;15.70;99.90
52743;DHT22;55583;53.012;6.556;2023-06-22T02:39:23;15.70;99.90
52743;DHT22;55583;53.012;6.556;2023-06-22T02:41:49;15.70;99.90
52743;DHT22;55583;53.012;6.556;2023-06-22T02:44:15;15.60;99.90
52743;DHT22;55583;53.012;6.556;2023-06-22T02:46:41;15.60;99.90
52743;DHT22;55583;53.012;6.556;2023-06-22T02:49:07;15.50;99.90
52743;DHT22;55583;53.012;6.556;2023-06-22T02:51:33;15.50;99.90
52743;DHT22;55583;53.012;6.556;2023-06-22T02:54:00;15.50;99.90
52743;DHT22;55583;53.012;6.556;2023-06-22T02:56:26;15.40;99.90
52743;DHT22;55583;53.012;6.556;2023-06-22T02:58:52;15.40;99.90
52743;DHT22;55583;53.012;6.556;2023-06-22T03:01:17;15.30;99.90
52743;DHT22;55583;53.012;6.556;2023-06-22T03:03:49;15.30;99.90
52743;DHT22;55583;53.012;6.556;2023-06-22T03:06:15;15.30;99.90
52743;DHT22;55583;53.012;6.556;2023-06-22T03:08:41;15.30;99.90
52743;DHT22;55583;53.012;6.556;2023-06-22T03:11:07;15.20;99.90
52743;DHT22;55583;53.012;6.556;2023-06-22T03:13:33;15.20;99.90
52743;DHT22;55583;53.012;6.556;2023-06-22T03:15:59;15.30;99.90
52743;DHT22;55583;53.012;6.556;2023-06-22T03:18:24;15.20;99.90
52743;DHT22;55583;53.012;6.556;2023-06-22T03:20:50;15.30;99.90
52743;DHT22;55583;53.012;6.556;2023-06-22T03:23:16;15.20;99.90
52743;DHT22;55583;53.012;6.556;2023-06-22T03:25:42;15.20;99.90
52743;DHT22;55583;53.012;6.556;2023-06-22T03:28:10;15.20;99.90
52743;DHT22;55583;53.012;6.556;2023-06-22T03:30:36;15.20;99.90
52743;DHT22;55583;53.012;6.556;2023-06-22T03:33:01;15.20;99.90
52743;DHT22;55583;53.012;6.556;2023-06-22T03:35:27;15.30;99.90
52743;DHT22;55583;53.012;6.556;2023-06-22T03:37:53;15.20;99.90
52743;DHT22;55583;53.012;6.556;2023-06-22T03:40:19;15.20;99.90
52743;DHT22;55583;53.012;6.556;2023-06-22T03:42:45;15.20;99.90
52743;DHT22;55583;53.012;6.556;2023-06-22T03:45:11;15.30;99.90
52743;DHT22;55583;53.012;6.556;2023-06-22T03:47:37;15.30;99.90
52743;DHT22;55583;53.012;6.556;2023-06-22T03:50:03;15.30;99.90
52743;DHT22;55583;53.012;6.556;2023-06-22T03:52:31;15.30;99.90
52743;DHT22;55583;53.012;6.556;2023-06-22T03:54:58;15.40;99.90
52743;DHT22;55583;53.012;6.556;2023-06-22T03:57:23;15.30;99.90
52743;DHT22;55583;53.012;6.556;2023-06-22T03:59:49;15.30;99.90
52743;DHT22;55583;53.012;6.556;2023-06-22T04:02:15;15.40;99.90
52743;DHT22;55583;53.012;6.556;2023-06-22T04:04:41;15.40;99.90
52743;DHT22;55583;53.012;6.556;2023-06-22T04:07:06;15.40;99.90
52743;DHT22;55583;53.012;6.556;2023-06-22T04:09:33;15.50;99.90
52743;DHT22;55583;53.012;6.556;2023-06-22T04:11:58;15.50;99.90
52743;DHT22;55583;53.012;6.556;2023-06-22T04:14:24;15.60;99.90
52743;DHT22;55583;53.012;6.556;2023-06-22T04:16:51;15.60;99.90
52743;DHT22;55583;53.012;6.556;2023-06-22T04:19:16;15.70;99.90
52743;DHT22;55583;53.012;6.556;2023-06-22T04:21:43;15.70;99.90
52743;DHT22;55583;53.012;6.556;2023-06-22T04:24:10;15.70;99.90
52743;DHT22;55583;53.012;6.556;2023-06-22T04:26:36;15.80;99.90
52743;DHT22;55583;53.012;6.556;2023-06-22T04:29:04;15.80;99.90
52743;DHT22;55583;53.012;6.556;2023-06-22T04:31:32;15.80;99.90
52743;DHT22;55583;53.012;6.556;2023-06-22T04:34:04;15.90;99.90
52743;DHT22;55583;53.012;6.556;2023-06-22T04:36:36;15.90;99.90
52743;DHT22;55583;53.012;6.556;2023-06-22T04:41:32;16.00;99.90
52743;DHT22;55583;53.012;6.556;2023-06-22T04:44:11;16.10;99.90
52743;DHT22;55583;53.012;6.556;2023-06-22T04:46:37;16.10;99.90
52743;DHT22;55583;53.012;6.556;2023-06-22T04:49:08;16.20;99.90
52743;DHT22;55583;53.012;6.556;2023-06-22T04:51:39;16.20;99.90
52743;DHT22;55583;53.012;6.556;2023-06-22T04:54:06;16.20;99.90
52743;DHT22;55583;53.012;6.556;2023-06-22T04:56:32;16.20;99.90
52743;DHT22;55583;53.012;6.556;2023-06-22T04:58:58;16.30;99.90
52743;DHT22;55583;53.012;6.556;2023-06-22T05:01:23;16.40;99.90
52743;DHT22;55583;53.012;6.556;2023-06-22T05:03:50;16.40;99.90
52743;DHT22;55583;53.012;6.556;2023-06-22T05:06:21;16.70;99.90
52743;DHT22;55583;53.012;6.556;2023-06-22T05:08:47;16.60;99.90
52743;DHT22;55583;53.012;6.556;2023-06-22T05:11:12;16.70;99.90
52743;DHT22;55583;53.012;6.556;2023-06-22T05:13:38;16.80;99.90
52743;DHT22;55583;53.012;6.556;2023-06-22T05:16:04;16.90;99.90
52743;DHT22;55583;53.012;6.556;2023-06-22T05:18:31;16.90;99.90
52743;DHT22;55583;53.012;6.556;2023-06-22T05:20:58;17.00;99.90
52743;DHT22;55583;53.012;6.556;2023-06-22T05:23:24;17.10;99.90
52743;DHT22;55583;53.012;6.556;2023-06-22T05:25:50;17.20;99.90
52743;DHT22;55583;53.012;6.556;2023-06-22T05:28:16;17.20;99.90
52743;DHT22;55583;53.012;6.556;2023-06-22T05:30:41;17.30;99.90
52743;DHT22;55583;53.012;6.556;2023-06-22T05:33:07;17.40;99.90
52743;DHT22;55583;53.012;6.556;2023-06-22T05:35:33;17.50;99.90
52743;DHT22;55583;53.012;6.556;2023-06-22T05:37:58;17.60;99.90
52743;DHT22;55583;53.012;6.556;2023-06-22T05:40:24;17.80;99.90
52743;DHT22;55583;53.012;6.556;2023-06-22T05:42:49;17.90;99.90
52743;DHT22;55583;53.012;6.556;2023-06-22T05:45:15;18.00;99.90
52743;DHT22;55583;53.012;6.556;2023-06-22T05:47:41;18.10;99.90
52743;DHT22;55583;53.012;6.556;2023-06-22T05:50:07;18.20;99.90
52743;DHT22;55583;53.012;6.556;2023-06-22T05:52:34;18.30;99.90
52743;DHT22;55583;53.012;6.556;2023-06-22T05:55:01;18.40;99.90
52743;DHT22;55583;53.012;6.556;2023-06-22T05:57:27;18.40;99.90
52743;DHT22;55583;53.012;6.556;2023-06-22T05:59:53;18.50;99.90
52743;DHT22;55583;53.012;6.556;2023-06-22T06:02:22;18.60;99.90
52743;DHT22;55583;53.012;6.556;2023-06-22T06:04:48;18.70;99.90
52743;DHT22;55583;53.012;6.556;2023-06-22T06:07:16;18.90;99.90
52743;DHT22;55583;53.012;6.556;2023-06-22T06:09:42;19.10;99.90
52743;DHT22;55583;53.012;6.556;2023-06-22T06:12:08;19.30;99.90
52743;DHT22;55583;53.012;6.556;2023-06-22T06:14:33;19.40;99.90
52743;DHT22;55583;53.012;6.556;2023-06-22T06:16:59;19.50;99.90
52743;DHT22;55583;53.012;6.556;2023-06-22T06:19:24;19.60;99.90
52743;DHT22;55583;53.012;6.556;2023-06-22T06:21:50;19.70;99.90
52743;DHT22;55583;53.012;6.556;2023-06-22T06:24:16;19.80;99.90
52743;DHT22;55583;53.012;6.556;2023-06-22T06:26:42;19.90;99.90
52743;DHT22;55583;53.012;6.556;2023-06-22T06:29:07;19.80;99.90
52743;DHT22;55583;53.012;6.556;2023-06-22T06:31:33;19.90;99.90
52743;DHT22;55583;53.012;6.556;2023-06-22T06:33:58;19.90;99.90
52743;DHT22;55583;53.012;6.556;2023-06-22T06:36:24;20.10;99.90
52743;DHT22;55583;53.012;6.556;2023-06-22T06:38:50;20.30;99.90
52743;DHT22;55583;53.012;6.556;2023-06-22T06:41:16;20.60;99.90
52743;DHT22;55583;53.012;6.556;2023-06-22T06:43:42;20.80;99.90
52743;DHT22;55583;53.012;6.556;2023-06-22T06:46:09;21.20;99.90
52743;DHT22;55583;53.012;6.556;2023-06-22T06:48:35;21.50;99.90
52743;DHT22;55583;53.012;6.556;2023-06-22T06:51:00;21.80;99.90
52743;DHT22;55583;53.012;6.556;2023-06-22T06:53:26;21.90;99.90
52743;DHT22;55583;53.012;6.556;2023-06-22T06:55:52;21.90;99.90
52743;DHT22;55583;53.012;6.556;2023-06-22T06:58:18;21.90;99.90
52743;DHT22;55583;53.012;6.556;2023-06-22T07:00:43;21.90;99.90
52743;DHT22;55583;53.012;6.556;2023-06-22T07:03:09;21.80;99.90
52743;DHT22;55583;53.012;6.556;2023-06-22T07:05:35;21.70;99.90
52743;DHT22;55583;53.012;6.556;2023-06-22T07:08:02;21.80;99.90
52743;DHT22;55583;53.012;6.556;2023-06-22T07:10:29;21.80;99.90
52743;DHT22;55583;53.012;6.556;2023-06-22T07:12:55;21.90;99.90
52743;DHT22;55583;53.012;6.556;2023-06-22T07:15:20;21.90;99.90
52743;DHT22;55583;53.012;6.556;2023-06-22T07:17:46;22.00;99.90
52743;DHT22;55583;53.012;6.556;2023-06-22T07:20:12;22.00;99.90
52743;DHT22;55583;53.012;6.556;2023-06-22T07:22:42;22.20;99.90
52743;DHT22;55583;53.012;6.556;2023-06-22T07:25:08;22.30;99.90
52743;DHT22;55583;53.012;6.556;2023-06-22T07:27:58;22.20;99.90
52743;DHT22;55583;53.012;6.556;2023-06-22T07:30:24;22.30;99.30
52743;DHT22;55583;53.012;6.556;2023-06-22T07:32:50;22.30;99.40
52743;DHT22;55583;53.012;6.556;2023-06-22T07:35:16;22.30;99.30
52743;DHT22;55583;53.012;6.556;2023-06-22T07:37:44;22.40;98.80
52743;DHT22;55583;53.012;6.556;2023-06-22T07:40:11;22.50;97.90
52743;DHT22;55583;53.012;6.556;2023-06-22T07:42:36;22.70;96.70
52743;DHT22;55583;53.012;6.556;2023-06-22T07:45:06;22.70;95.80
52743;DHT22;55583;53.012;6.556;2023-06-22T07:47:33;22.80;95.00
52743;DHT22;55583;53.012;6.556;2023-06-22T07:50:01;23.10;93.90
52743;DHT22;55583;53.012;6.556;2023-06-22T07:52:28;23.00;93.40
52743;DHT22;55583;53.012;6.556;2023-06-22T07:54:54;22.90;93.10
52743;DHT22;55583;53.012;6.556;2023-06-22T07:57:20;22.80;93.50
52743;DHT22;55583;53.012;6.556;2023-06-22T07:59:46;22.80;93.90
52743;DHT22;55583;53.012;6.556;2023-06-22T08:02:12;22.70;93.60
52743;DHT22;55583;53.012;6.556;2023-06-22T08:04:38;22.60;93.20
52743;DHT22;55583;53.012;6.556;2023-06-22T08:07:04;23.10;93.30
52743;DHT22;55583;53.012;6.556;2023-06-22T08:09:31;23.80;91.90
52743;DHT22;55583;53.012;6.556;2023-06-22T08:11:57;24.30;89.70
52743;DHT22;55583;53.012;6.556;2023-06-22T08:14:27;24.50;86.10
52743;DHT22;55583;53.012;6.556;2023-06-22T08:16:52;24.40;84.90
52743;DHT22;55583;53.012;6.556;2023-06-22T08:19:18;24.30;85.40
52743;DHT22;55583;53.012;6.556;2023-06-22T08:21:44;24.30;85.20
52743;DHT22;55583;53.012;6.556;2023-06-22T08:24:09;24.40;85.30
52743;DHT22;55583;53.012;6.556;2023-06-22T08:26:35;24.80;84.00
52743;DHT22;55583;53.012;6.556;2023-06-22T08:29:03;25.30;82.10
52743;DHT22;55583;53.012;6.556;2023-06-22T08:31:29;25.20;81.20
52743;DHT22;55583;53.012;6.556;2023-06-22T08:33:55;25.20;80.90
52743;DHT22;55583;53.012;6.556;2023-06-22T08:36:21;25.10;81.00
52743;DHT22;55583;53.012;6.556;2023-06-22T08:38:47;25.80;80.50
52743;DHT22;55583;53.012;6.556;2023-06-22T08:41:17;26.70;77.70
52743;DHT22;55583;53.012;6.556;2023-06-22T08:43:43;27.70;74.80
52743;DHT22;55583;53.012;6.556;2023-06-22T08:46:10;28.60;71.50
52743;DHT22;55583;53.012;6.556;2023-06-22T08:48:36;29.30;69.20
52743;DHT22;55583;53.012;6.556;2023-06-22T08:51:01;30.10;67.30
52743;DHT22;55583;53.012;6.556;2023-06-22T08:53:28;30.80;65.10
52743;DHT22;55583;53.012;6.556;2023-06-22T08:55:54;31.40;63.30
52743;DHT22;55583;53.012;6.556;2023-06-22T08:58:20;31.30;62.30
52743;DHT22;55583;53.012;6.556;2023-06-22T09:00:47;31.20;62.40
52743;DHT22;55583;53.012;6.556;2023-06-22T09:03:13;31.30;61.40
52743;DHT22;55583;53.012;6.556;2023-06-22T09:05:39;31.50;60.60
52743;DHT22;55583;53.012;6.556;2023-06-22T09:08:04;32.00;60.50
52743;DHT22;55583;53.012;6.556;2023-06-22T09:10:30;32.30;59.80
52743;DHT22;55583;53.012;6.556;2023-06-22T09:12:57;32.60;58.90
52743;DHT22;55583;53.012;6.556;2023-06-22T09:15:22;33.10;58.00
52743;DHT22;55583;53.012;6.556;2023-06-22T09:17:48;33.30;56.80
52743;DHT22;55583;53.012;6.556;2023-06-22T09:20:14;33.30;56.60
52743;DHT22;55583;53.012;6.556;2023-06-22T09:22:41;33.70;56.10
52743;DHT22;55583;53.012;6.556;2023-06-22T09:25:06;34.20;55.30
52743;DHT22;55583;53.012;6.556;2023-06-22T09:27:32;33.80;54.40
52743;DHT22;55583;53.012;6.556;2023-06-22T09:29:58;33.90;54.90
52743;DHT22;55583;53.012;6.556;2023-06-22T09:32:24;34.10;54.60
52743;DHT22;55583;53.012;6.556;2023-06-22T09:34:51;34.50;53.90
52743;DHT22;55583;53.012;6.556;2023-06-22T09:37:16;35.00;53.00
52743;DHT22;55583;53.012;6.556;2023-06-22T09:39:42;35.40;53.20
52743;DHT22;55583;53.012;6.556;2023-06-22T09:42:08;35.70;51.80
52743;DHT22;55583;53.012;6.556;2023-06-22T09:44:33;36.10;51.10
52743;DHT22;55583;53.012;6.556;2023-06-22T09:47:00;35.80;50.50
52743;DHT22;55583;53.012;6.556;2023-06-22T09:49:25;36.00;50.50
52743;DHT22;55583;53.012;6.556;2023-06-22T09:51:51;35.90;50.30
52743;DHT22;55583;53.012;6.556;2023-06-22T09:54:18;36.10;50.50
52743;DHT22;55583;53.012;6.556;2023-06-22T09:56:43;36.50;50.00
52743;DHT22;55583;53.012;6.556;2023-06-22T09:59:09;36.80;49.40
52743;DHT22;55583;53.012;6.556;2023-06-22T10:01:35;36.30;49.70
52743;DHT22;55583;53.012;6.556;2023-06-22T10:04:02;35.90;49.60
52743;DHT22;55583;53.012;6.556;2023-06-22T10:06:28;35.80;50.20
52743;DHT22;55583;53.012;6.556;2023-06-22T10:08:53;36.10;50.10
52743;DHT22;55583;53.012;6.556;2023-06-22T10:11:19;36.60;49.60
52743;DHT22;55583;53.012;6.556;2023-06-22T10:13:45;37.00;49.00
52743;DHT22;55583;53.012;6.556;2023-06-22T10:16:10;37.20;48.60
52743;DHT22;55583;53.012;6.556;2023-06-22T10:18:36;36.80;48.40
52743;DHT22;55583;53.012;6.556;2023-06-22T10:21:02;36.00;48.60
52743;DHT22;55583;53.012;6.556;2023-06-22T10:23:27;35.10;49.90
52743;DHT22;55583;53.012;6.556;2023-06-22T10:25:53;34.70;50.90
52743;DHT22;55583;53.012;6.556;2023-06-22T10:28:19;34.50;51.10
52743;DHT22;55583;53.012;6.556;2023-06-22T10:30:44;34.70;50.50
52743;DHT22;55583;53.012;6.556;2023-06-22T10:33:11;35.00;50.40
52743;DHT22;55583;53.012;6.556;2023-06-22T10:35:37;35.30;49.40
52743;DHT22;55583;53.012;6.556;2023-06-22T10:38:03;35.70;49.40
52743;DHT22;55583;53.012;6.556;2023-06-22T10:40:29;36.30;48.60
52743;DHT22;55583;53.012;6.556;2023-06-22T10:42:55;36.30;48.30
52743;DHT22;55583;53.012;6.556;2023-06-22T10:45:21;36.60;48.50
52743;DHT22;55583;53.012;6.556;2023-06-22T10:47:47;36.90;48.40
52743;DHT22;55583;53.012;6.556;2023-06-22T10:50:13;37.30;47.90
52743;DHT22;55583;53.012;6.556;2023-06-22T10:52:39;37.80;47.60
52743;DHT22;55583;53.012;6.556;2023-06-22T10:55:05;38.30;47.20
52743;DHT22;55583;53.012;6.556;2023-06-22T10:57:31;38.70;46.60
52743;DHT22;55583;53.012;6.556;2023-06-22T10:59:57;38.90;46.20
52743;DHT22;55583;53.012;6.556;2023-06-22T11:02:23;38.60;46.10
52743;DHT22;55583;53.012;6.556;2023-06-22T11:04:49;38.60;46.30
52743;DHT22;55583;53.012;6.556;2023-06-22T11:07:15;38.40;45.80
52743;DHT22;55583;53.012;6.556;2023-06-22T11:09:43;38.20;45.70
52743;DHT22;55583;53.012;6.556;2023-06-22T11:12:09;37.10;46.40
52743;DHT22;55583;53.012;6.556;2023-06-22T11:14:34;35.50;47.80
52743;DHT22;55583;53.012;6.556;2023-06-22T11:17:00;34.80;49.10
52743;DHT22;55583;53.012;6.556;2023-06-22T11:19:26;34.30;49.00
52743;DHT22;55583;53.012;6.556;2023-06-22T11:21:52;34.10;49.70
52743;DHT22;55583;53.012;6.556;2023-06-22T11:24:17;33.70;50.40
52743;DHT22;55583;53.012;6.556;2023-06-22T11:26:43;33.10;51.20
52743;DHT22;55583;53.012;6.556;2023-06-22T11:29:09;32.50;52.10
52743;DHT22;55583;53.012;6.556;2023-06-22T11:31:35;32.00;52.90
52743;DHT22;55583;53.012;6.556;2023-06-22T11:34:01;31.40;53.40
52743;DHT22;55583;53.012;6.556;2023-06-22T11:36:27;31.00;54.00
52743;DHT22;55583;53.012;6.556;2023-06-22T11:38:54;30.90;54.00
52743;DHT22;55583;53.012;6.556;2023-06-22T11:41:20;30.90;54.30
52743;DHT22;55583;53.012;6.556;2023-06-22T11:43:46;30.80;54.20
52743;DHT22;55583;53.012;6.556;2023-06-22T11:46:11;30.70;54.50
52743;DHT22;55583;53.012;6.556;2023-06-22T11:48:37;30.70;54.80
52743;DHT22;55583;53.012;6.556;2023-06-22T11:51:03;30.80;55.00
52743;DHT22;55583;53.012;6.556;2023-06-22T11:53:29;30.80;54.90
52743;DHT22;55583;53.012;6.556;2023-06-22T11:55:55;30.80;55.00
52743;DHT22;55583;53.012;6.556;2023-06-22T11:58:21;30.80;54.40
52743;DHT22;55583;53.012;6.556;2023-06-22T12:00:48;30.80;54.40
52743;DHT22;55583;53.012;6.556;2023-06-22T12:03:13;30.70;55.00
52743;DHT22;55583;53.012;6.556;2023-06-22T12:05:40;30.80;54.70
52743;DHT22;55583;53.012;6.556;2023-06-22T12:08:06;30.70;54.70
52743;DHT22;55583;53.012;6.556;2023-06-22T12:10:32;30.70;55.00
52743;DHT22;55583;53.012;6.556;2023-06-22T12:12:57;30.50;55.20
52743;DHT22;55583;53.012;6.556;2023-06-22T12:15:25;30.50;55.50
52743;DHT22;55583;53.012;6.556;2023-06-22T12:17:51;30.50;55.70
52743;DHT22;55583;53.012;6.556;2023-06-22T12:20:17;30.50;55.40
52743;DHT22;55583;53.012;6.556;2023-06-22T12:22:43;30.50;55.30
52743;DHT22;55583;53.012;6.556;2023-06-22T12:25:09;30.50;55.60
52743;DHT22;55583;53.012;6.556;2023-06-22T12:27:35;30.40;55.50
52743;DHT22;55583;53.012;6.556;2023-06-22T12:30:01;30.20;56.10
52743;DHT22;55583;53.012;6.556;2023-06-22T12:32:27;30.10;56.40
52743;DHT22;55583;53.012;6.556;2023-06-22T12:34:53;30.20;56.20
52743;DHT22;55583;53.012;6.556;2023-06-22T12:37:19;30.20;56.00
52743;DHT22;55583;53.012;6.556;2023-06-22T12:39:45;30.30;56.30
52743;DHT22;55583;53.012;6.556;2023-06-22T12:42:11;30.50;56.00
52743;DHT22;55583;53.012;6.556;2023-06-22T12:44:38;30.60;56.00
52743;DHT22;55583;53.012;6.556;2023-06-22T12:47:05;30.70;55.60
52743;DHT22;55583;53.012;6.556;2023-06-22T12:49:31;30.70;55.40
52743;DHT22;55583;53.012;6.556;2023-06-22T12:51:57;30.40;55.30
52743;DHT22;55583;53.012;6.556;2023-06-22T12:54:22;30.10;55.90
52743;DHT22;55583;53.012;6.556;2023-06-22T12:56:50;29.70;56.60
52743;DHT22;55583;53.012;6.556;2023-06-22T12:59:16;29.50;56.90
52743;DHT22;55583;53.012;6.556;2023-06-22T13:01:43;29.40;57.10
52743;DHT22;55583;53.012;6.556;2023-06-22T13:04:14;29.30;57.30
52743;DHT22;55583;53.012;6.556;2023-06-22T13:06:44;29.20;57.50
52743;DHT22;55583;53.012;6.556;2023-06-22T13:09:13;29.00;57.80
52743;DHT22;55583;53.012;6.556;2023-06-22T13:11:39;28.80;58.50
52743;DHT22;55583;53.012;6.556;2023-06-22T13:14:04;28.60;58.70
52743;DHT22;55583;53.012;6.556;2023-06-22T13:16:30;28.50;59.00
52743;DHT22;55583;53.012;6.556;2023-06-22T13:18:56;28.30;59.10
52743;DHT22;55583;53.012;6.556;2023-06-22T13:21:21;28.20;59.70
52743;DHT22;55583;53.012;6.556;2023-06-22T13:23:47;28.10;60.00
52743;DHT22;55583;53.012;6.556;2023-06-22T13:26:13;28.00;60.70
52743;DHT22;55583;53.012;6.556;2023-06-22T13:28:38;27.90;61.10
52743;DHT22;55583;53.012;6.556;2023-06-22T13:31:04;27.90;61.40
52743;DHT22;55583;53.012;6.556;2023-06-22T13:33:30;27.80;61.70
52743;DHT22;55583;53.012;6.556;2023-06-22T13:35:55;27.80;61.80
52743;DHT22;55583;53.012;6.556;2023-06-22T13:38:21;27.70;62.30
52743;DHT22;55583;53.012;6.556;2023-06-22T13:40:48;27.60;62.60
52743;DHT22;55583;53.012;6.556;2023-06-22T13:43:14;27.40;63.00
52743;DHT22;55583;53.012;6.556;2023-06-22T13:45:41;27.30;63.40
52743;DHT22;55583;53.012;6.556;2023-06-22T13:48:07;27.20;63.90
52743;DHT22;55583;53.012;6.556;2023-06-22T13:50:33;27.10;64.00
52743;DHT22;55583;53.012;6.556;2023-06-22T13:52:59;27.10;64.20
52743;DHT22;55583;53.012;6.556;2023-06-22T13:55:24;26.90;64.40
52743;DHT22;55583;53.012;6.556;2023-06-22T13:57:50;26.80;64.50
52743;DHT22;55583;53.012;6.556;2023-06-22T14:00:17;26.70;64.90
52743;DHT22;55583;53.012;6.556;2023-06-22T14:02:42;26.60;65.20
52743;DHT22;55583;53.012;6.556;2023-06-22T14:05:08;26.50;65.40
52743;DHT22;55583;53.012;6.556;2023-06-22T14:07:34;26.50;65.70
52743;DHT22;55583;53.012;6.556;2023-06-22T14:10:00;26.50;65.60
52743;DHT22;55583;53.012;6.556;2023-06-22T14:12:26;26.40;65.70
52743;DHT22;55583;53.012;6.556;2023-06-22T14:14:51;26.20;65.90
52743;DHT22;55583;53.012;6.556;2023-06-22T14:17:17;26.10;66.60
52743;DHT22;55583;53.012;6.556;2023-06-22T14:19:49;26.10;66.40
52743;DHT22;55583;53.012;6.556;2023-06-22T14:22:15;26.10;66.50
52743;DHT22;55583;53.012;6.556;2023-06-22T14:24:40;26.10;66.60
52743;DHT22;55583;53.012;6.556;2023-06-22T14:27:06;26.00;66.60
52743;DHT22;55583;53.012;6.556;2023-06-22T14:29:34;25.90;66.80
52743;DHT22;55583;53.012;6.556;2023-06-22T14:32:00;25.80;67.20
52743;DHT22;55583;53.012;6.556;2023-06-22T14:34:25;25.70;67.20
52743;DHT22;55583;53.012;6.556;2023-06-22T14:36:51;25.60;67.40
52743;DHT22;55583;53.012;6.556;2023-06-22T14:39:17;25.50;67.70
52743;DHT22;55583;53.012;6.556;2023-06-22T14:41:43;25.50;68.00
52743;DHT22;55583;53.012;6.556;2023-06-22T14:44:08;25.40;68.20
52743;DHT22;55583;53.012;6.556;2023-06-22T14:46:34;25.40;68.30
52743;DHT22;55583;53.012;6.556;2023-06-22T14:49:00;25.30;68.50
52743;DHT22;55583;53.012;6.556;2023-06-22T14:51:25;25.20;68.30
52743;DHT22;55583;53.012;6.556;2023-06-22T14:53:52;25.10;68.50
52743;DHT22;55583;53.012;6.556;2023-06-22T14:56:18;25.00;68.70
52743;DHT22;55583;53.012;6.556;2023-06-22T14:58:44;24.90;68.90
52743;DHT22;55583;53.012;6.556;2023-06-22T15:01:13;24.80;69.00
52743;DHT22;55583;53.012;6.556;2023-06-22T15:03:39;24.70;69.00
52743;DHT22;55583;53.012;6.556;2023-06-22T15:06:04;24.60;69.10
52743;DHT22;55583;53.012;6.556;2023-06-22T15:08:30;24.50;69.30
52743;DHT22;55583;53.012;6.556;2023-06-22T15:10:59;24.50;69.60
52743;DHT22;55583;53.012;6.556;2023-06-22T15:13:24;24.40;69.60
52743;DHT22;55583;53.012;6.556;2023-06-22T15:15:51;24.40;69.60
52743;DHT22;55583;53.012;6.556;2023-06-22T15:18:17;24.30;69.60
52743;DHT22;55583;53.012;6.556;2023-06-22T15:20:43;24.20;69.70
52743;DHT22;55583;53.012;6.556;2023-06-22T15:23:13;24.10;70.10
52743;DHT22;55583;53.012;6.556;2023-06-22T15:25:39;24.00;70.70
52743;DHT22;55583;53.012;6.556;2023-06-22T15:28:05;23.90;71.00
52743;DHT22;55583;53.012;6.556;2023-06-22T15:30:30;23.80;71.30
52743;DHT22;55583;53.012;6.556;2023-06-22T15:32:57;23.70;71.50
52743;DHT22;55583;53.012;6.556;2023-06-22T15:35:23;23.60;72.10